This is the latest recevied weather packets stored in our database for station/object EA5LU-10. If no packets are shown the sender has not sent any weather packets the latest 10 day(s).
| Time | Temp. | Humidity | Pressure | Rain* | Wind** | Luminosity | Snow |
|---|---|---|---|---|---|---|---|
| 1778076721 | 27.78° C | 35% | 1000.7 hPa | - | - | - | - |
| 1778075817 | 27.78° C | 37% | 1000.8 hPa | - | - | - | - |
| 1778074916 | 26.67° C | 41% | 1000.7 hPa | - | - | - | - |
| 1778074016 | 27.22° C | 42% | 1001 hPa | - | - | - | - |
| 1778073111 | 26.67° C | 43% | 1001 hPa | - | - | - | - |
| 1778072211 | 28.89° C | 39% | 1001 hPa | - | - | - | - |
| 1778071309 | 27.78° C | 42% | 1001 hPa | - | - | - | - |
| 1778070410 | 28.33° C | 41% | 1001.1 hPa | - | - | - | - |
| 1778069507 | 26.11° C | 45% | 1001.2 hPa | - | - | - | - |
| 1778068607 | 26.67° C | 44% | 1001.4 hPa | - | - | - | - |
| 1778067710 | 24.44° C | 47% | 1001.5 hPa | - | - | - | - |
| 1778065908 | 28.33° C | 37% | 1001.7 hPa | - | - | - | - |
| 1778065003 | 25.56° C | 42% | 1001.9 hPa | - | - | - | - |
| 1778064102 | 26.11° C | 41% | 1002 hPa | - | - | - | - |
| 1778063202 | 23.89° C | 45% | 1002.2 hPa | - | - | - | - |
| 1778062305 | 25.56° C | 45% | 1002.2 hPa | - | - | - | - |
| 1778061400 | 23.33° C | 50% | 1002.4 hPa | - | - | - | - |
| 1778060499 | 23.89° C | 48% | 1002.4 hPa | - | - | - | - |
| 1778054193 | 21.67° C | 51% | 1002.4 hPa | - | - | - | - |
| 1778052392 | 21.11° C | 38% | 1002.4 hPa | - | - | - | - |
| 1778051493 | 20.56° C | 38% | 1002.3 hPa | - | - | - | - |
| 1778049690 | 20° C | 42% | 1002.4 hPa | - | - | - | - |
| 1778048792 | 18.89° C | 44% | 1002.3 hPa | - | - | - | - |
| 1778047892 | 16.67° C | 50% | 1001.8 hPa | - | - | - | - |
| 1778046987 | 16.67° C | 52% | 1001.6 hPa | - | - | - | - |
* Rain since midnight (hover to see other rain measurements)
** Current wind speed in m/s (hover to see current wind gust speed)